Time;durP1;ratioP1;P1;durP2;ratioP2;P2;SDS_P1;SDS_P2;PMS_P1;PMS_P2;Temp;Humidity;BMP_temperature;BMP_pressure;BME280_temperature;BME280_humidity;BME280_pressure;Samples;Min_cycle;Max_cycle;Signal;HPM_P1;HPM_P2
2022/12/25 00:00:30;;;;;;;1999.90;999.90;;;12.40;99.90;;;;;;4991312;28;20058;-79
2022/12/25 00:02:56;;;;;;;1999.90;999.90;;;12.10;99.90;;;;;;5009541;28;20080;-79
2022/12/25 00:05:22;;;;;;;1999.90;999.90;;;13.10;99.90;;;;;;5028001;28;20070;-80
2022/12/25 00:07:48;;;;;;;1999.90;999.90;;;12.00;99.90;;;;;;4999245;28;20057;-81
2022/12/25 00:10:14;;;;;;;1999.90;999.90;;;12.40;99.90;;;;;;5029579;28;20049;-83
2022/12/25 00:12:39;;;;;;;1999.90;999.90;;;12.00;99.90;;;;;;5030811;28;20403;-79
2022/12/25 00:15:05;;;;;;;1999.90;999.90;;;12.40;99.90;;;;;;5030668;28;20482;-87
2022/12/25 00:17:31;;;;;;;1999.90;999.90;;;12.30;99.90;;;;;;5030477;28;20048;-79
2022/12/25 00:19:57;;;;;;;1999.90;999.90;;;12.20;99.90;;;;;;5029566;28;20037;-82
2022/12/25 00:22:23;;;;;;;1999.90;999.90;;;12.40;99.90;;;;;;5027873;28;20048;-81
2022/12/25 00:24:49;;;;;;;1999.90;999.90;;;12.10;99.90;;;;;;4993802;28;20099;-81
2022/12/25 00:27:15;;;;;;;1999.90;999.90;;;12.40;99.90;;;;;;5011173;28;20064;-81
2022/12/25 00:29:41;;;;;;;1999.90;999.90;;;;;;;;;;5030322;28;20088;-81
2022/12/25 00:32:07;;;;;;;1999.90;999.90;;;12.40;99.90;;;;;;5022562;28;20121;-88
2022/12/25 00:34:33;;;;;;;1999.90;999.90;;;12.10;99.90;;;;;;4995197;28;20045;-82
2022/12/25 00:36:59;;;;;;;1999.90;999.90;;;12.10;99.90;;;;;;5017502;28;20496;-81
2022/12/25 00:39:24;;;;;;;1999.90;999.90;;;12.90;99.90;;;;;;5013086;28;20541;-86
2022/12/25 00:44:34;;;;;;;1999.90;999.90;;;12.50;99.90;;;;;;5032863;28;20163;-81
2022/12/25 00:47:00;;;;;;;1999.90;999.90;;;12.50;99.90;;;;;;4998306;28;20494;-82
2022/12/25 00:49:26;;;;;;;1999.90;999.90;;;12.30;99.90;;;;;;5031741;28;20049;-81
2022/12/25 00:51:52;;;;;;;1999.90;999.90;;;12.60;99.90;;;;;;5032635;28;20033;-81
2022/12/25 00:54:19;;;;;;;1999.90;999.90;;;12.60;99.90;;;;;;5012250;28;20119;-82
2022/12/25 00:56:45;;;;;;;1999.90;999.90;;;;;;;;;;5032277;28;20132;-82
2022/12/25 00:59:11;;;;;;;1999.90;999.90;;;12.40;99.90;;;;;;5031698;28;20049;-88
2022/12/25 01:01:38;;;;;;;1999.90;999.90;;;12.20;99.90;;;;;;5013085;28;20049;-80
2022/12/25 01:04:04;;;;;;;1999.90;999.90;;;12.40;99.90;;;;;;5013726;28;20099;-83
2022/12/25 01:06:30;;;;;;;1999.90;999.90;;;12.70;99.90;;;;;;5031041;28;20043;-81
2022/12/25 01:11:41;;;;;;;1999.90;999.90;;;12.60;99.90;;;;;;5032271;28;20046;-81
2022/12/25 01:14:07;;;;;;;1999.90;999.90;;;12.60;99.90;;;;;;5030507;28;20033;-81
2022/12/25 01:16:33;;;;;;;1999.90;999.90;;;12.80;99.90;;;;;;5013386;28;20057;-81
2022/12/25 01:18:59;;;;;;;1999.90;999.90;;;12.40;99.90;;;;;;5032221;28;20065;-81
2022/12/25 01:21:25;;;;;;;1999.90;999.90;;;13.10;99.90;;;;;;5013070;28;20441;-81
2022/12/25 01:23:51;;;;;;;1999.90;999.90;;;12.90;99.90;;;;;;5030285;28;20136;-82
2022/12/25 01:26:19;;;;;;;1999.90;999.90;;;12.70;99.90;;;;;;5011544;28;20049;-81
2022/12/25 01:28:45;;;;;;;1999.90;999.90;;;12.50;99.90;;;;;;5029790;28;20088;-81
2022/12/25 01:31:13;;;;;;;1999.90;999.90;;;12.90;99.90;;;;;;5029063;28;20113;-82
2022/12/25 01:33:39;;;;;;;;;;;12.60;99.90;;;;;;5027511;28;20058;-85
2022/12/25 01:36:19;;;;;;;1999.90;999.90;;;12.60;99.90;;;;;;5027400;28;19933;-81
2022/12/25 01:38:46;;;;;;;1999.90;999.90;;;12.90;99.90;;;;;;5025841;28;20042;-88
2022/12/25 01:41:12;;;;;;;1999.90;999.90;;;12.60;99.90;;;;;;5012723;28;20045;-81
2022/12/25 01:43:56;;;;;;;1999.90;999.90;;;12.50;99.90;;;;;;5013054;28;20103;-84
2022/12/25 01:46:22;;;;;;;1999.90;999.90;;;12.50;99.90;;;;;;5010561;28;20053;-81
2022/12/25 01:48:48;;;;;;;1999.90;999.90;;;12.60;99.90;;;;;;5014189;28;20042;-81
2022/12/25 01:51:36;;;;;;;1999.90;999.90;;;12.90;99.90;;;;;;5035587;28;20103;-81
2022/12/25 01:54:07;;;;;;;1999.90;999.90;;;12.90;99.90;;;;;;5034825;28;20140;-81
2022/12/25 01:56:35;;;;;;;1999.90;999.90;;;12.90;99.90;;;;;;5028985;28;20080;-80
2022/12/25 01:59:01;;;;;;;1999.90;999.90;;;12.90;99.90;;;;;;5018069;28;20552;-80
2022/12/25 02:01:27;;;;;;;1999.90;999.90;;;12.70;99.90;;;;;;5028959;28;20041;-80
2022/12/25 02:03:58;;;;;;;1999.90;999.90;;;13.00;99.90;;;;;;5034351;28;20060;-80
2022/12/25 02:06:25;;;;;;;1999.90;999.90;;;13.20;99.90;;;;;;5033052;28;20041;-80
2022/12/25 02:08:51;;;;;;;1999.90;999.90;;;12.90;99.90;;;;;;5035107;28;20045;-80
2022/12/25 02:14:01;;;;;;;1999.90;999.90;;;13.20;99.90;;;;;;5035532;28;20054;-80
2022/12/25 02:16:34;;;;;;;1999.90;999.90;;;13.00;99.90;;;;;;5032578;28;20129;-81
2022/12/25 02:19:18;;;;;;;1999.90;999.90;;;13.20;99.90;;;;;;5015806;28;20046;-80
2022/12/25 02:22:14;;;;;;;1999.90;999.90;;;12.90;99.90;;;;;;5033584;28;20038;-81
2022/12/25 02:24:51;;;;;;;1999.90;999.90;;;13.20;99.90;;;;;;5035029;28;20121;-81
2022/12/25 02:27:54;;;;;;;1999.90;999.90;;;13.30;99.90;;;;;;5015796;28;20045;-80
2022/12/25 02:30:21;;;;;;;1999.90;999.90;;;13.30;99.90;;;;;;5017507;28;20037;-86
2022/12/25 02:34:01;;;;;;;1999.90;999.90;;;13.00;99.90;;;;;;5016671;28;20046;-81
2022/12/25 02:35:48;;;;;;;1999.90;999.90;;;13.00;99.90;;;;;;5013785;28;20512;-82
2022/12/25 02:38:20;;;;;;;1779.70;789.50;;;13.00;99.90;;;;;;5030884;28;20045;-81
2022/12/25 02:40:54;;;;;;;1999.90;999.90;;;12.80;99.90;;;;;;5031028;28;20080;-81
2022/12/25 03:11:29;;;;;;;1999.90;999.90;;;13.70;99.90;;;;;;5031544;28;20055;-88
2022/12/25 03:11:42;;;;;;;1999.90;999.90;;;13.60;99.90;;;;;;5015663;28;20056;-88
2022/12/25 03:16:55;;;;;;;1999.90;999.90;;;13.50;99.90;;;;;;5016042;28;20482;-92
2022/12/25 03:27:50;;;;;;;1999.90;999.90;;;13.90;99.90;;;;;;5016622;28;20698;-88
2022/12/25 03:33:07;;;;;;;1999.90;999.90;;;13.30;99.90;;;;;;5018462;28;20060;-91
2022/12/25 03:35:44;;;;;;;1999.90;999.90;;;13.80;99.90;;;;;;5015713;28;20056;-91
2022/12/25 04:37:03;;;;;;;1999.90;999.90;;;13.60;99.90;;;;;;5025495;28;20053;-85
2022/12/25 04:39:28;;;;;;;1999.90;999.90;;;13.50;99.90;;;;;;5012995;28;20504;-86
2022/12/25 04:41:54;;;;;;;1999.90;999.90;;;13.90;99.90;;;;;;5013146;28;20546;-85
2022/12/25 04:44:20;;;;;;;1999.90;999.90;;;13.50;99.90;;;;;;5013009;28;20053;-85
2022/12/25 04:46:45;;;;;;;1999.90;999.90;;;13.50;99.90;;;;;;5028589;28;20055;-84
2022/12/25 04:49:11;;;;;;;1999.90;999.90;;;13.90;99.90;;;;;;5012068;28;20049;-85
2022/12/25 04:51:37;;;;;;;1999.90;999.90;;;13.80;99.90;;;;;;5014268;28;20053;-85
2022/12/25 04:54:03;;;;;;;1999.90;999.90;;;13.70;99.90;;;;;;5029161;28;20045;-84
2022/12/25 04:56:29;;;;;;;1999.90;999.90;;;14.00;99.90;;;;;;5029583;28;20049;-85
2022/12/25 04:58:55;;;;;;;1999.90;999.90;;;13.90;99.90;;;;;;4995958;28;20398;-85
2022/12/25 05:01:21;;;;;;;1999.90;999.90;;;14.00;99.90;;;;;;5030962;28;20064;-85
2022/12/25 05:03:46;;;;;;;1999.90;999.90;;;14.00;99.90;;;;;;5013564;28;20046;-82
2022/12/25 05:06:12;;;;;;;1999.90;999.90;;;13.50;99.90;;;;;;5012617;28;20099;-86
2022/12/25 05:08:38;;;;;;;1999.90;999.90;;;13.70;99.90;;;;;;5014365;28;20422;-83
2022/12/25 05:11:06;;;;;;;1999.90;999.90;;;14.00;99.90;;;;;;5031532;28;20099;-85
2022/12/25 05:13:32;;;;;;;1999.90;999.90;;;14.10;99.90;;;;;;5015977;28;20055;-84
2022/12/25 05:15:57;;;;;;;1999.90;999.90;;;14.00;99.90;;;;;;4998529;28;20486;-86
2022/12/25 05:18:23;;;;;;;1999.90;999.90;;;14.10;99.90;;;;;;5016460;28;20045;-85
2022/12/25 05:20:53;;;;;;;1999.90;999.90;;;14.00;99.90;;;;;;5033160;28;20473;-85
2022/12/25 05:23:19;;;;;;;1999.90;999.90;;;14.00;99.90;;;;;;5032906;28;20060;-83
2022/12/25 05:25:45;;;;;;;1999.90;999.90;;;14.10;99.90;;;;;;5031415;28;20049;-84
2022/12/25 05:28:10;;;;;;;1999.90;999.90;;;13.70;99.90;;;;;;5032899;28;20049;-83
2022/12/25 05:30:36;;;;;;;1999.90;999.90;;;13.70;99.90;;;;;;5014870;28;20095;-83
2022/12/25 05:33:02;;;;;;;1999.90;999.90;;;14.20;99.90;;;;;;5034628;28;20128;-83
2022/12/25 05:35:28;;;;;;;1999.90;999.90;;;13.70;99.90;;;;;;5032649;28;20112;-83
2022/12/25 05:37:54;;;;;;;1999.90;999.90;;;13.90;99.90;;;;;;5012508;28;20136;-83
2022/12/25 05:40:19;;;;;;;1999.90;999.90;;;14.30;99.90;;;;;;5010968;28;20062;-84
2022/12/25 05:42:45;;;;;;;1999.90;999.90;;;14.30;99.90;;;;;;4993586;28;20049;-86
2022/12/25 05:45:11;;;;;;;1999.90;999.90;;;14.20;99.90;;;;;;5011600;28;20053;-86
2022/12/25 05:47:37;;;;;;;1999.90;999.90;;;14.20;99.90;;;;;;5015242;28;20046;-84
2022/12/25 05:50:03;;;;;;;1999.90;999.90;;;14.30;99.90;;;;;;5033650;28;20052;-83
2022/12/25 05:52:33;;;;;;;1999.90;999.90;;;14.30;99.90;;;;;;5008818;28;20061;-83
2022/12/25 05:54:59;;;;;;;1999.90;999.90;;;14.40;99.90;;;;;;5026571;28;20053;-82
2022/12/25 05:57:28;;;;;;;1999.90;999.90;;;14.10;99.90;;;;;;5024719;28;20041;-83
2022/12/25 05:59:54;;;;;;;1999.90;999.90;;;14.40;99.90;;;;;;4993723;28;20457;-83
2022/12/25 06:02:20;;;;;;;1999.90;999.90;;;14.20;99.90;;;;;;5013485;28;20536;-83
2022/12/25 06:04:46;;;;;;;1999.90;999.90;;;14.40;99.90;;;;;;5032586;28;20045;-83
2022/12/25 06:07:11;;;;;;;1999.90;999.90;;;14.30;99.90;;;;;;5012422;28;20041;-83
2022/12/25 06:09:37;;;;;;;1999.90;999.90;;;14.10;99.90;;;;;;5010179;28;20056;-84
2022/12/25 06:12:03;;;;;;;1999.90;999.90;;;14.10;99.90;;;;;;4980454;28;20067;-84
2022/12/25 06:14:28;;;;;;;1999.90;999.90;;;14.30;99.90;;;;;;5031384;28;20072;-83
2022/12/25 06:16:54;;;;;;;1999.90;999.90;;;14.00;99.90;;;;;;5012768;28;20045;-83
2022/12/25 06:19:20;;;;;;;1999.90;999.90;;;12.50;99.90;;;;;;5031675;28;20053;-84
2022/12/25 06:21:46;;;;;;;1999.90;999.90;;;14.00;99.90;;;;;;5030930;28;20520;-83
2022/12/25 06:24:12;;;;;;;1999.90;999.90;;;14.10;99.90;;;;;;5013357;28;20049;-83
2022/12/25 06:26:38;;;;;;;1999.90;999.90;;;14.00;99.90;;;;;;5014226;28;20049;-83
2022/12/25 06:29:04;;;;;;;1999.90;999.90;;;14.00;99.90;;;;;;5030615;28;20045;-83
2022/12/25 06:31:30;;;;;;;1999.90;999.90;;;14.50;99.90;;;;;;5012228;28;20049;-83
2022/12/25 06:33:56;;;;;;;1999.90;999.90;;;14.50;99.90;;;;;;5011445;28;20049;-83
2022/12/25 06:36:28;;;;;;;1999.90;999.90;;;14.10;99.90;;;;;;5015922;28;20375;-83
2022/12/25 06:38:54;;;;;;;1999.90;999.90;;;14.00;99.90;;;;;;5034526;28;20053;-87
2022/12/25 06:41:22;;;;;;;1999.90;999.90;;;14.30;99.90;;;;;;5032600;28;20040;-83
2022/12/25 06:43:53;;;;;;;1999.90;999.90;;;14.20;99.90;;;;;;5014768;28;20054;-83
2022/12/25 06:46:20;;;;;;;1999.90;999.90;;;14.50;99.90;;;;;;5034295;28;20659;-84
2022/12/25 06:48:49;;;;;;;1999.90;999.90;;;14.50;99.90;;;;;;5013529;28;20049;-83
2022/12/25 06:51:23;;;;;;;1999.90;999.90;;;14.50;99.90;;;;;;5030842;28;20042;-83
2022/12/25 06:53:50;;;;;;;1999.90;999.90;;;14.10;99.90;;;;;;5015448;28;20513;-83
2022/12/25 06:56:18;;;;;;;1999.90;999.90;;;14.20;99.90;;;;;;5016496;28;20064;-83
2022/12/25 06:58:46;;;;;;;1999.90;999.90;;;14.10;99.90;;;;;;5034163;28;20121;-83
2022/12/25 07:01:24;;;;;;;1999.90;999.90;;;14.10;99.90;;;;;;5031677;28;20045;-84
2022/12/25 07:03:53;;;;;;;1999.90;999.90;;;14.60;99.90;;;;;;5031495;28;20545;-83
2022/12/25 07:06:19;;;;;;;1999.90;999.90;;;14.10;99.90;;;;;;5025610;28;20509;-82
2022/12/25 07:08:44;;;;;;;1999.90;999.90;;;14.60;99.90;;;;;;5013665;28;20077;-83
2022/12/25 07:11:10;;;;;;;1999.90;999.90;;;14.20;99.90;;;;;;5010364;28;20391;-82
2022/12/25 07:13:36;;;;;;;1999.90;999.90;;;14.10;99.90;;;;;;4989677;28;20052;-80
2022/12/25 07:16:04;;;;;;;1999.90;999.90;;;14.10;99.90;;;;;;5032629;28;20103;-83
2022/12/25 07:18:30;;;;;;;1999.90;999.90;;;14.60;99.90;;;;;;5033132;28;20045;-82
2022/12/25 07:20:58;;;;;;;1999.90;999.90;;;14.60;99.90;;;;;;5033572;28;20041;-84
2022/12/25 07:23:24;;;;;;;1999.90;999.90;;;14.10;99.90;;;;;;5012363;28;20069;-82
2022/12/25 07:25:54;;;;;;;1999.90;999.90;;;14.30;99.90;;;;;;4998118;28;20049;-83
2022/12/25 07:28:20;;;;;;;1999.90;999.90;;;14.60;99.90;;;;;;5008262;28;20390;-82
2022/12/25 07:30:46;;;;;;;1999.90;999.90;;;14.40;99.90;;;;;;4964880;28;20049;-82
2022/12/25 07:33:12;;;;;;;1999.90;999.90;;;14.70;99.90;;;;;;5030435;28;20045;-82
2022/12/25 07:35:37;;;;;;;1999.90;999.90;;;14.20;99.90;;;;;;5029932;28;20116;-84
2022/12/25 07:38:03;;;;;;;1999.90;999.90;;;14.60;99.90;;;;;;4997143;28;20049;-82
2022/12/25 07:40:29;;;;;;;1999.90;999.90;;;14.70;99.90;;;;;;5030499;28;20137;-82
2022/12/25 07:42:55;;;;;;;1999.90;999.90;;;14.60;99.90;;;;;;5014608;28;20060;-82
2022/12/25 07:45:20;;;;;;;1999.90;999.90;;;14.10;99.90;;;;;;5032516;28;20068;-81
2022/12/25 07:47:46;;;;;;;1999.90;999.90;;;14.20;99.90;;;;;;5010216;28;20371;-81
2022/12/25 07:50:12;;;;;;;1999.90;999.90;;;14.30;99.90;;;;;;5009414;28;20049;-82
2022/12/25 07:52:38;;;;;;;1999.90;999.90;;;14.50;99.90;;;;;;5030739;28;20079;-81
2022/12/25 07:55:04;;;;;;;1999.90;999.90;;;14.50;99.90;;;;;;4983391;28;20081;-82
2022/12/25 07:57:30;;;;;;;1999.90;999.90;;;14.60;99.90;;;;;;5029874;28;20092;-82
2022/12/25 07:59:56;;;;;;;1999.90;999.90;;;;;;;;;;5029002;28;20057;-82
2022/12/25 08:02:27;;;;;;;1999.90;999.90;;;14.20;99.90;;;;;;4994380;28;20141;-82
2022/12/25 08:04:53;;;;;;;1999.90;999.90;;;14.20;99.90;;;;;;5011948;28;20410;-82
2022/12/25 08:07:20;;;;;;;1999.90;999.90;;;14.60;99.90;;;;;;5010944;28;20060;-82
2022/12/25 08:09:46;;;;;;;1999.90;999.90;;;14.60;99.90;;;;;;5028135;28;20042;-84
2022/12/25 08:12:11;;;;;;;1999.90;999.90;;;14.30;99.90;;;;;;5028595;28;20048;-82
2022/12/25 08:14:37;;;;;;;1999.90;999.90;;;14.80;99.90;;;;;;5027932;28;20103;-84
2022/12/25 08:17:03;;;;;;;1999.90;999.90;;;14.40;99.90;;;;;;5009902;28;20076;-86
2022/12/25 08:19:29;;;;;;;1999.90;999.90;;;14.80;99.90;;;;;;5008984;28;20049;-87
2022/12/25 08:21:55;;;;;;;1999.90;999.90;;;14.60;99.90;;;;;;5026414;28;21571;-83
2022/12/25 08:24:21;;;;;;;1999.90;999.90;;;14.50;99.90;;;;;;5031651;28;20183;-82
2022/12/25 08:26:47;;;;;;;1999.90;999.90;;;14.70;99.90;;;;;;5019765;28;20077;-84
2022/12/25 08:29:13;;;;;;;1999.90;999.90;;;14.20;99.90;;;;;;5028747;28;20544;-82
2022/12/25 08:31:41;;;;;;;1999.90;999.90;;;14.30;99.90;;;;;;5011541;28;20106;-82
2022/12/25 08:34:06;;;;;;;;;;;14.80;99.90;;;;;;5029361;28;20052;-82
2022/12/25 08:36:33;;;;;;;1999.90;999.90;;;14.20;99.90;;;;;;5028647;28;19921;-82
2022/12/25 08:38:59;;;;;;;1999.90;999.90;;;14.50;99.90;;;;;;5029894;28;20107;-82
2022/12/25 08:41:25;;;;;;;1999.90;999.90;;;14.50;99.90;;;;;;5026671;28;20506;-83
2022/12/25 08:43:51;;;;;;;1999.90;999.90;;;14.40;99.90;;;;;;5029245;28;20129;-82
2022/12/25 08:46:16;;;;;;;1999.90;999.90;;;13.10;99.90;;;;;;4996124;28;20121;-81
2022/12/25 08:48:44;;;;;;;1999.90;999.90;;;14.70;99.90;;;;;;5012461;28;20088;-81
2022/12/25 08:51:16;;;;;;;1999.90;999.90;;;14.60;99.90;;;;;;5009337;28;20072;-81
2022/12/25 08:53:43;;;;;;;1999.90;999.90;;;14.70;99.90;;;;;;5026196;28;20115;-83
2022/12/25 08:56:08;;;;;;;1999.90;999.90;;;14.80;99.90;;;;;;5012170;28;20053;-81
2022/12/25 08:58:34;;;;;;;1999.90;999.90;;;14.30;99.90;;;;;;5013098;28;20045;-82
2022/12/25 09:01:00;;;;;;;1999.90;999.90;;;14.20;99.90;;;;;;5011154;28;20084;-81
2022/12/25 09:03:26;;;;;;;1999.90;999.90;;;14.30;99.90;;;;;;5027268;28;20057;-82
2022/12/25 09:05:53;;;;;;;1999.90;999.90;;;14.70;99.90;;;;;;5029848;28;20358;-82
2022/12/25 09:08:20;;;;;;;1999.90;999.90;;;14.80;99.90;;;;;;5012868;28;20095;-83
2022/12/25 09:10:47;;;;;;;1999.90;999.90;;;14.60;99.90;;;;;;5028508;28;20398;-82
2022/12/25 09:13:13;;;;;;;1999.90;999.90;;;14.30;99.90;;;;;;5026669;28;20118;-79
2022/12/25 09:15:39;;;;;;;1999.90;999.90;;;14.30;99.90;;;;;;5012610;28;20064;-81
2022/12/25 09:18:05;;;;;;;1999.90;999.90;;;14.80;99.90;;;;;;5026827;28;20124;-83
2022/12/25 09:20:31;;;;;;;1999.90;999.90;;;14.30;99.90;;;;;;5023134;28;20045;-81
2022/12/25 09:22:57;;;;;;;1999.90;999.90;;;14.60;99.90;;;;;;5026623;28;20485;-81
2022/12/25 09:25:23;;;;;;;1999.90;999.90;;;14.30;99.90;;;;;;4992513;28;20053;-80
2022/12/25 09:27:48;;;;;;;1999.90;999.90;;;14.70;99.90;;;;;;5026730;28;20052;-80
2022/12/25 09:30:14;;;;;;;1999.90;999.90;;;14.80;99.90;;;;;;5028353;28;20130;-80
2022/12/25 09:32:40;;;;;;;1999.90;999.90;;;14.30;99.90;;;;;;5026676;28;20045;-81
2022/12/25 09:35:07;;;;;;;1999.90;999.90;;;14.20;99.90;;;;;;5026492;28;20143;-81
2022/12/25 09:37:32;;;;;;;1999.90;999.90;;;14.80;99.90;;;;;;5007942;28;20049;-81
2022/12/25 09:39:58;;;;;;;1999.90;999.90;;;14.40;99.90;;;;;;5030084;28;20502;-79
2022/12/25 09:42:30;;;;;;;1999.90;999.90;;;14.30;99.90;;;;;;5007482;28;20092;-80
2022/12/25 09:45:25;;;;;;;1999.90;999.90;;;14.80;99.90;;;;;;5026249;28;20057;-78
2022/12/25 09:47:55;;;;;;;1999.90;999.90;;;14.50;99.90;;;;;;5002927;28;20053;-80
2022/12/25 09:50:21;;;;;;;1999.90;999.90;;;14.50;99.90;;;;;;5029938;28;20033;-80
2022/12/25 09:53:12;;;;;;;1999.90;999.90;;;14.60;99.90;;;;;;5025531;28;20087;-80
2022/12/25 09:55:44;;;;;;;1999.90;999.90;;;14.80;99.90;;;;;;5023081;28;20053;-81
2022/12/25 09:58:12;;;;;;;1999.90;999.90;;;14.40;99.90;;;;;;5028829;28;20076;-82
2022/12/25 10:00:43;;;;;;;1999.90;999.90;;;14.80;99.90;;;;;;5028179;28;20072;-80
2022/12/25 10:03:30;;;;;;;1999.90;999.90;;;14.80;99.90;;;;;;5023396;28;20090;-80
2022/12/25 10:06:17;;;;;;;1999.90;999.90;;;14.40;99.90;;;;;;5031018;28;20088;-82
2022/12/25 10:08:58;;;;;;;1999.90;999.90;;;14.90;99.90;;;;;;5030827;28;20537;-80
2022/12/25 10:11:40;;;;;;;1999.90;999.90;;;14.40;99.90;;;;;;5016477;28;20052;-81
2022/12/25 10:14:20;;;;;;;1999.90;999.90;;;14.40;99.90;;;;;;5027903;28;20053;-81
2022/12/25 10:16:58;;;;;;;1999.90;999.90;;;14.50;99.90;;;;;;5026602;28;20045;-81
2022/12/25 10:19:50;;;;;;;1999.90;999.90;;;14.80;99.90;;;;;;5027474;28;20045;-83
2022/12/25 10:22:26;;;;;;;1999.90;999.90;;;14.60;99.90;;;;;;5005606;28;20439;-80
2022/12/25 10:24:54;;;;;;;1999.90;999.90;;;14.80;99.90;;;;;;5031170;28;20499;-79
2022/12/25 10:27:33;;;;;;;1999.90;999.90;;;14.90;99.90;;;;;;4998224;28;20048;-80
2022/12/25 10:30:00;;;;;;;1999.90;999.90;;;14.40;99.90;;;;;;5028730;28;20045;-79
2022/12/25 10:32:26;;;;;;;1999.90;999.90;;;14.40;99.90;;;;;;5029236;28;20088;-81
2022/12/25 10:34:52;;;;;;;1999.90;999.90;;;14.70;99.90;;;;;;4995246;28;20041;-80
2022/12/25 10:37:18;;;;;;;1999.90;999.90;;;14.80;99.90;;;;;;5024774;28;20378;-78
2022/12/25 10:39:44;;;;;;;1999.90;999.90;;;14.40;99.90;;;;;;5030980;28;20402;-79
2022/12/25 10:42:41;;;;;;;1999.90;999.90;;;14.40;99.90;;;;;;4995623;28;20048;-79
2022/12/25 10:45:08;;;;;;;1999.90;999.90;;;14.50;99.90;;;;;;5028433;28;20441;-79
2022/12/25 10:47:38;;;;;;;1999.90;999.90;;;14.50;99.90;;;;;;5028354;28;20120;-79
2022/12/25 10:50:17;;;;;;;1999.90;999.90;;;14.80;99.90;;;;;;5007123;28;20104;-78
2022/12/25 10:53:03;;;;;;;1999.90;999.90;;;14.90;99.90;;;;;;5022554;28;20099;-78
2022/12/25 10:55:29;;;;;;;1999.90;999.90;;;14.50;99.90;;;;;;5030731;28;20131;-79
2022/12/25 10:57:56;;;;;;;1999.90;999.90;;;15.00;99.90;;;;;;4995577;28;20042;-80
2022/12/25 11:00:29;;;;;;;1999.90;999.90;;;15.00;99.90;;;;;;5031345;28;20049;-79
2022/12/25 11:02:55;;;;;;;1999.90;999.90;;;14.60;99.90;;;;;;5015139;28;20053;-79
2022/12/25 11:05:30;;;;;;;1999.90;999.90;;;14.80;99.90;;;;;;5012829;28;20096;-82
2022/12/25 11:07:58;;;;;;;1999.90;999.90;;;14.70;99.90;;;;;;5014975;28;20084;-79
2022/12/25 11:10:36;;;;;;;1999.90;999.90;;;15.00;99.90;;;;;;5032184;28;20045;-77
2022/12/25 11:13:06;;;;;;;1999.90;999.90;;;15.20;99.90;;;;;;5016002;28;20045;-77
2022/12/25 11:16:09;;;;;;;1999.90;999.90;;;14.70;99.90;;;;;;5032880;28;20057;-76
2022/12/25 11:18:47;;;;;;;1999.90;999.90;;;15.20;99.90;;;;;;5029992;28;20061;-77
2022/12/25 11:21:21;;;;;;;1999.90;999.90;;;14.70;99.90;;;;;;5032798;28;20124;-77
2022/12/25 11:23:54;;;;;;;1999.90;999.90;;;14.80;99.90;;;;;;5032823;28;20482;-76
2022/12/25 11:26:20;;;;;;;1999.90;999.90;;;15.40;99.90;;;;;;5033534;28;20049;-77
2022/12/25 11:28:49;;;;;;;1999.90;999.90;;;15.10;99.90;;;;;;5030904;28;20128;-77
2022/12/25 11:31:20;;;;;;;1999.90;999.90;;;15.10;99.90;;;;;;5033531;28;20065;-79
2022/12/25 11:33:57;;;;;;;1999.90;999.90;;;15.30;99.90;;;;;;5031842;28;20060;-80
2022/12/25 11:36:40;;;;;;;1999.90;999.90;;;14.80;99.90;;;;;;5014400;28;20053;-77
2022/12/25 11:39:18;;;;;;;1999.90;999.90;;;15.20;99.90;;;;;;5031327;28;20129;-77
2022/12/25 11:41:45;;;;;;;1999.90;999.90;;;15.00;99.90;;;;;;5013736;28;20046;-78
2022/12/25 11:44:38;;;;;;;1999.90;999.90;;;15.20;99.90;;;;;;5015914;28;20346;-76
2022/12/25 11:47:25;;;;;;;1999.90;999.90;;;14.90;99.90;;;;;;5012432;28;20423;-78
2022/12/25 11:50:00;;;;;;;1999.90;999.90;;;14.90;99.90;;;;;;5031389;28;20045;-76
2022/12/25 11:52:33;;;;;;;1999.90;999.90;;;15.40;99.90;;;;;;5033175;28;20049;-78
2022/12/25 11:55:24;;;;;;;1999.90;999.90;;;14.90;99.90;;;;;;5014837;28;20091;-79
2022/12/25 11:57:57;;;;;;;1999.90;999.90;;;15.00;99.90;;;;;;5030837;28;20041;-79
2022/12/25 12:00:23;;;;;;;1999.90;999.90;;;15.20;99.90;;;;;;5008609;28;20049;-78
2022/12/25 12:03:26;;;;;;;1999.90;999.90;;;15.00;99.90;;;;;;5031686;28;20054;-77
2022/12/25 12:06:11;;;;;;;1999.90;999.90;;;15.10;99.90;;;;;;5012580;28;20099;-78
2022/12/25 12:08:37;;;;;;;1999.90;999.90;;;15.30;99.90;;;;;;5013469;28;20085;-78
2022/12/25 12:11:37;;;;;;;1999.90;999.90;;;14.90;99.90;;;;;;5012711;28;20037;-77
2022/12/25 12:14:33;;;;;;;1999.90;999.90;;;15.40;99.90;;;;;;4973282;28;20050;-76
2022/12/25 12:16:59;;;;;;;1999.90;999.90;;;14.90;99.90;;;;;;5008162;28;20129;-82
2022/12/25 12:19:27;;;;;;;1999.90;999.90;;;15.20;99.90;;;;;;5009925;28;20056;-77
2022/12/25 12:21:59;;;;;;;1999.90;999.90;;;15.10;99.90;;;;;;5027113;28;20443;-80
2022/12/25 12:24:39;;;;;;;1999.90;999.90;;;15.30;99.90;;;;;;4981224;28;20042;-79
2022/12/25 12:27:25;;;;;;;1999.90;999.90;;;15.50;99.90;;;;;;5013653;28;20077;-81
2022/12/25 12:29:55;;;;;;;1999.90;999.90;;;15.50;99.90;;;;;;5028478;28;20050;-82
2022/12/25 12:32:28;;;;;;;1999.90;999.90;;;15.40;99.90;;;;;;5024958;28;20041;-84
2022/12/25 12:34:55;;;;;;;1999.90;999.90;;;15.40;99.90;;;;;;5023122;28;20064;-78
2022/12/25 12:37:27;;;;;;;1999.90;999.90;;;15.00;99.90;;;;;;5000834;28;20148;-82
2022/12/25 12:39:53;;;;;;;1999.90;999.90;;;15.00;99.90;;;;;;5027015;28;20080;-78
2022/12/25 12:42:24;;;;;;;1999.90;999.90;;;15.50;99.90;;;;;;5025500;28;20394;-79
2022/12/25 12:44:52;;;;;;;1999.90;999.90;;;15.20;99.90;;;;;;5004053;28;20045;-81
2022/12/25 12:47:26;;;;;;;;;;;15.20;99.90;;;;;;5027840;28;20045;-78
2022/12/25 12:50:01;;;;;;;1999.90;999.90;;;15.50;99.90;;;;;;5010598;28;19921;-84
2022/12/25 12:52:37;;;;;;;1999.90;999.90;;;15.20;99.90;;;;;;5008354;28;20045;-87
2022/12/25 12:55:11;;;;;;;1999.90;999.90;;;15.50;99.90;;;;;;5026322;28;20128;-83
2022/12/25 12:57:38;;;;;;;1999.90;999.90;;;15.40;99.90;;;;;;5007382;28;20045;-79
2022/12/25 13:00:16;;;;;;;1999.90;999.90;;;15.10;99.90;;;;;;5007659;28;20054;-82
2022/12/25 13:03:33;;;;;;;1999.90;999.90;;;15.20;99.90;;;;;;5026193;28;20145;-81
2022/12/25 13:06:18;;;;;;;1999.90;999.90;;;15.40;99.90;;;;;;4927861;29;20106;-81
2022/12/25 13:09:01;;;;;;;1999.90;999.90;;;15.60;99.90;;;;;;4917989;29;20078;-82
2022/12/25 13:11:30;;;;;;;1999.90;999.90;;;15.10;99.90;;;;;;4990986;28;20046;-84
2022/12/25 13:14:01;;;;;;;1999.90;999.90;;;15.50;99.90;;;;;;5012180;28;20457;-82
2022/12/25 13:16:39;;;;;;;1999.90;999.90;;;15.00;99.90;;;;;;5013249;28;20107;-83
2022/12/25 13:19:23;;;;;;;1999.90;999.90;;;15.10;99.90;;;;;;5031611;28;20115;-83
2022/12/25 13:21:57;;;;;;;1999.90;999.90;;;15.60;99.90;;;;;;5022776;28;20041;-84
2022/12/25 13:24:26;;;;;;;1999.90;999.90;;;15.10;99.90;;;;;;5024662;28;20052;-87
2022/12/25 13:26:52;;;;;;;1999.90;999.90;;;;;;;;;;5010193;28;20050;-84
2022/12/25 13:29:22;;;;;;;1999.90;999.90;;;15.60;99.90;;;;;;5012809;28;20079;-84
2022/12/25 13:31:48;;;;;;;1999.90;999.90;;;15.10;99.90;;;;;;5009588;28;20045;-84
2022/12/25 13:34:34;;;;;;;1999.90;999.90;;;15.00;99.90;;;;;;4964562;28;20503;-85
2022/12/25 13:37:10;;;;;;;1999.90;999.90;;;14.80;99.90;;;;;;4995244;28;20041;-84
2022/12/25 13:39:47;;;;;;;1999.90;999.90;;;15.30;99.90;;;;;;5026267;28;20049;-85
2022/12/25 13:42:17;;;;;;;1999.90;999.90;;;15.50;99.90;;;;;;5008749;28;20048;-84
2022/12/25 13:44:59;;;;;;;1999.90;999.90;;;14.70;99.90;;;;;;5014069;28;20045;-84
2022/12/25 13:47:26;;;;;;;1999.90;999.90;;;15.60;99.90;;;;;;5032306;28;20045;-84
2022/12/25 13:49:54;;;;;;;1999.90;999.90;;;14.80;99.90;;;;;;5016285;28;20048;-80
2022/12/25 13:52:36;;;;;;;1999.90;999.90;;;15.10;99.90;;;;;;5029005;28;20042;-81
2022/12/25 13:55:11;;;;;;;1999.90;999.90;;;15.30;99.90;;;;;;5025814;28;20100;-85
2022/12/25 13:57:40;;;;;;;1999.90;999.90;;;14.80;99.90;;;;;;5031291;28;20049;-83
2022/12/25 14:00:15;;;;;;;1999.90;999.90;;;15.40;99.90;;;;;;5012771;28;20067;-79
2022/12/25 14:02:41;;;;;;;1999.90;999.90;;;14.80;99.90;;;;;;5033547;28;20053;-83